• Join FlightAware (Why Join?)
  • Login
  • US Flag 
03:45PM EST


 

Airport Tracker/Info


-or-


 

Live Flight TrackerFlight Track Log ✈ SWA803 ✈ 06-May-2013 ✈ KLAS - KTPA

Flight Track Log - Related Links

Times and Time Zones

All times are in EDT time to prevent confusion due to time zone crossing. See the SWA803 flight status page for this flight to view local times or setup timezone preferences in your user account.

Time Position Orientation Groundspeed Altitude Reporting Facility
EDT Latitude Longitude Course Direction KTS MPH feet Rate Location/Type
07:02PM 35.5834 -110.9497 97° East  Level Estimated
07:03PM 35.5614 -110.7891 100° East  Level Estimated
07:04PM 35.5392 -110.6287 100° East  Level Estimated
07:05PM 35.5168 -110.4683 100° East  Level Estimated
07:06PM 35.4941 -110.3081 100° East  Level Estimated
07:07PM 35.4713 -110.1479 100° East  Level Estimated
07:08PM 35.4481 -109.9866 100° East  Level Estimated
07:09PM 35.4246 -109.8255 100° East  Level Estimated
07:10PM 35.4009 -109.6644 100° East  Level Estimated
07:11PM 35.3771 -109.5035 100° East  Level Estimated
07:12PM 35.3530 -109.3426 100° East  Level Estimated
07:13PM 35.3287 -109.1818 100° East  Level Estimated
07:14PM 35.3041 -109.0212 101° East  Level Estimated
07:15PM 35.2794 -108.8606 101° East  Level Estimated
07:16PM 35.2546 -108.7009 101° East  Level Estimated
07:17PM 35.2296 -108.5413 101° East  Level Estimated
07:18PM 35.2043 -108.3818 101° East  Level Estimated
07:19PM 35.1789 -108.2224 101° East  Level Estimated
07:20PM 35.1532 -108.0631 101° East  Level Estimated
07:21PM 35.1270 -107.9018 101° East  Level Estimated
07:22PM 35.1006 -107.7406 101° East  Level Estimated
07:23PM 35.0740 -107.5795 101° East  Level Estimated
07:24PM 35.0471 -107.4185 101° East  Level Estimated
07:25PM 35.0201 -107.2577 102° East  Level Estimated
07:26PM 34.9928 -107.0969 102° East  Level Estimated
07:27PM 34.9653 -106.9362 102° East  Level Estimated
07:28PM 34.9376 -106.7757 102° East  Level Estimated
07:29PM 34.9097 -106.6152 102° East  Level Estimated
07:30PM 34.8816 -106.4549 102° East  Level Estimated
07:31PM 34.8533 -106.2947 102° East  Level Estimated
07:32PM 34.8247 -106.1346 102° East  Level Estimated
07:33PM 34.7960 -105.9745 102° East  Level Estimated
07:34PM 34.7670 -105.8147 102° East  Level Estimated
07:35PM 34.7379 -105.6549 102° East  Level Estimated
07:36PM 34.7085 -105.4952 103° East  Level Estimated
07:37PM 34.6789 -105.3357 103° East  Level Estimated
07:38PM 34.6491 -105.1762 103° East  Level Estimated
07:39PM 34.6191 -105.0169 103° East  Level Estimated
07:40PM 34.5890 -104.8577 103° East  Level Estimated
07:41PM 34.5585 -104.6986 103° East  Level Estimated
07:42PM 34.5279 -104.5396 103° East  Level Estimated
07:43PM 34.4971 -104.3808 103° East  Level Estimated
07:44PM 34.4661 -104.2220 103° East  Level Estimated
07:45PM 34.4348 -104.0634 103° East  Level Estimated
07:46PM 34.4034 -103.9049 103° East  Level Estimated
07:47PM 34.3718 -103.7465 104° East  Level Estimated
07:48PM 34.3399 -103.5883 104° East  Level Estimated
07:49PM 34.3079 -103.4301 104° East  Level Estimated
07:50PM 34.2756 -103.2721 104° East  Level Estimated
07:51PM 34.2432 -103.1142 104° East  Level Estimated
07:52PM 34.2105 -102.9564 104° East  Level Estimated
07:53PM 34.1777 -102.7988 104° East  Level Estimated
07:54PM 34.1446 -102.6413 104° East  Level Estimated
07:55PM 34.1113 -102.4836 104° East  Level Estimated
07:56PM 34.0779 -102.3267 104° East  Level Estimated
07:57PM 34.0443 -102.1699 104° East  Level Estimated
07:58PM 34.0106 -102.0133 105° East  Level Estimated
07:59PM 33.9766 -101.8568 105° East  Level Estimated
08:00PM 33.9424 -101.7004 105° East  Level Estimated
08:01PM 33.9081 -101.5441 105° East  Level Estimated
08:02PM 33.8735 -101.3879 105° East  Level Estimated
08:03PM 33.8387 -101.2319 105° East  Level Estimated
08:04PM 33.8038 -101.0760 105° East  Level Estimated
08:05PM 33.7685 -100.9197 105° East  Level Estimated
08:06PM 33.7330 -100.7635 105° East  Level Estimated
08:07PM 33.6973 -100.6075 105° East  Level Estimated
08:08PM 33.6615 -100.4516 105° East  Level Estimated
08:09PM 33.6254 -100.2958 105° East  Level Estimated
08:10PM 33.5891 -100.1401 106° East  Level Estimated
08:11PM 33.5527 -99.9846 106° East  Level Estimated
08:12PM 33.5160 -99.8292 106° East  Level Estimated
08:13PM 33.4792 -99.6739 106° East  Level Estimated
08:14PM 33.4422 -99.5188 106° East  Level Estimated
08:15PM 33.4049 -99.3638 106° East  Level Estimated
08:16PM 33.3675 -99.2089 106° East  Level Estimated
08:17PM 33.3299 -99.0542 106° East  Level Estimated
08:18PM 33.2921 -98.8996 106° East  Level Estimated
08:19PM 33.2541 -98.7451 106° East  Level Estimated
08:20PM 33.2159 -98.5908 106° East  Level Estimated
08:21PM 33.1775 -98.4366 107° East  Level Estimated
08:22PM 33.1390 -98.2825 107° East  Level Estimated
08:23PM 33.1002 -98.1286 107° East  Level Estimated
08:24PM 33.0612 -97.9748 107° East  Level Estimated
08:25PM 33.0221 -97.8212 107° East  Level Estimated
08:26PM 32.9828 -97.6676 107° East  Level Estimated
08:27PM 32.9433 -97.5143 107° East  Level Estimated
08:28PM 32.9036 -97.3610 107° East  Level Estimated
08:29PM 32.8637 -97.2079 107° East  Level Estimated
08:30PM 32.8236 -97.0549 107° East  Level Estimated
08:31PM 32.7834 -96.9021 107° East  Level Estimated
08:32PM 32.7429 -96.7494 107° East  Level Estimated
08:33PM 32.7023 -96.5969 108° East  Level Estimated
08:34PM 32.6615 -96.4445 108° East  Level Estimated
08:35PM 32.6205 -96.2922 108° East  Level Estimated
08:36PM 32.5793 -96.1401 108° East  Level Estimated
08:37PM 32.5379 -95.9881 108° East  Level Estimated
08:38PM 32.4964 -95.8362 108° East  Level Estimated
08:39PM 32.4547 -95.6845 108° East  Level Estimated
08:40PM 32.4128 -95.5329 108° East  Level Estimated
08:41PM 32.3707 -95.3815 108° East  Level Estimated
08:42PM 32.3284 -95.2302 108° East  Level Estimated
08:43PM 32.2860 -95.0791 108° East  Level Estimated
08:44PM 32.2433 -94.9280 108° East  Level Estimated
08:45PM 32.2005 -94.7772 109° East  Level Estimated
08:46PM 32.1575 -94.6265 109° East  Level Estimated
08:47PM 32.1144 -94.4759 109° East  Level Estimated
08:48PM 32.0710 -94.3254 109° East  Level Estimated
08:49PM 32.0275 -94.1752 109° East  Level Estimated
08:50PM 31.9838 -94.0250 109° East  Level Estimated
08:51PM 31.9399 -93.8750 109° East  Level Estimated
08:52PM 31.8959 -93.7251 109° East  Level Estimated
08:53PM 31.8516 -93.5754 109° East  Level Estimated
08:54PM 31.8072 -93.4258 109° East  Level Estimated
08:55PM 31.7626 -93.2764 109° East  Level Estimated
08:56PM 31.7179 -93.1271 109° East  Level Estimated
08:57PM 31.6730 -92.9780 109° East  Level Estimated
08:58PM 31.6279 -92.8290 110° East  Level Estimated
08:59PM 31.5826 -92.6801 110° East  Level Estimated
09:00PM 31.5371 -92.5314 110° East  Level Estimated
09:01PM 31.4915 -92.3828 110° East  Level Estimated
09:02PM 31.4457 -92.2344 110° East  Level Estimated
09:03PM 31.3998 -92.0861 110° East  Level Estimated
09:04PM 31.3536 -91.9380 110° East  Level Estimated
09:05PM 31.3074 -91.7900 110° East  Level Estimated
09:06PM 31.2609 -91.6422 110° East  Level Estimated
09:07PM 31.2142 -91.4945 110° East  Level Estimated
09:08PM 31.1674 -91.3469 110° East  Level Estimated
09:09PM 31.1204 -91.1995 110° East  Level Estimated
09:10PM 31.0733 -91.0523 110° East  Level Estimated
09:11PM 31.0260 -90.9052 111° Southeast  Level Estimated
09:12PM 30.9785 -90.7582 111° Southeast  Level Estimated
09:13PM 30.9309 -90.6114 111° Southeast  Level Estimated
09:14PM 30.8831 -90.4647 111° Southeast  Level Estimated
09:15PM 30.8351 -90.3182 111° Southeast  Level Estimated
09:16PM 30.7870 -90.1718 111° Southeast  Level Estimated
09:17PM 30.7387 -90.0256 111° Southeast  Level Estimated
09:18PM 30.6902 -89.8795 111° Southeast  Level Estimated
09:19PM 30.6416 -89.7336 111° Southeast  Level Estimated
09:20PM 30.5928 -89.5878 111° Southeast  Level Estimated
09:21PM 30.5438 -89.4422 111° Southeast  Level Estimated
09:22PM 30.4947 -89.2967 111° Southeast  Level Estimated
09:23PM 30.4454 -89.1513 111° Southeast  Level Estimated
09:24PM 30.3960 -89.0061 112° Southeast  Level Estimated
09:25PM 30.3464 -88.8611 112° Southeast  Level Estimated
09:26PM 30.2968 -88.7166 112° Southeast  Level Estimated
09:27PM 30.2470 -88.5724 112° Southeast  Level Estimated
09:28PM 30.1971 -88.4282 112° Southeast  Level Estimated
09:29PM 30.1471 -88.2842 112° Southeast  Level Estimated
09:30PM 30.0969 -88.1407 112° Southeast  Level Estimated
09:31PM 30.0467 -87.9974 112° Southeast  Level Estimated
09:32PM 29.9963 -87.8541 112° Southeast  Level Estimated
09:33PM 29.9457 -87.7111 112° Southeast  Level Estimated
09:34PM 29.8948 -87.5677 112° Southeast  Level Estimated
09:35PM 29.8438 -87.4246 112° Southeast  Level Estimated
09:36PM 29.7926 -87.2815 112° Southeast  Level Estimated
09:37PM 29.7412 -87.1386 112° Southeast  Level Estimated
09:38PM 29.6898 -86.9959 113° Southeast  Level Estimated
09:39PM 29.6381 -86.8533 113° Southeast  Level Estimated
09:40PM 29.5863 -86.7108 113° Southeast  Level Estimated
09:41PM 29.5344 -86.5685 113° Southeast  Level Estimated
09:42PM 29.4823 -86.4263 113° Southeast  Level Estimated
09:43PM 29.4300 -86.2843 113° Southeast  Level Estimated
09:44PM 29.3776 -86.1424 113° Southeast  Level Estimated
09:45PM 29.3251 -86.0007 113° Southeast  Level Estimated
09:46PM 29.2724 -85.8591 113° Southeast  Level Estimated
09:47PM 29.2195 -85.7177 113° Southeast  Level Estimated
09:48PM 29.1665 -85.5764 113° Southeast  Level Estimated
09:49PM 29.1134 -85.4353 113° Southeast  Level Estimated
09:50PM 29.0601 -85.2943 113° Southeast  Level Estimated
09:51PM 29.0067 -85.1535 113° Southeast  Level Estimated
09:52PM 28.9530 -85.0127 113° Southeast  Level Estimated
09:53PM 28.8993 -84.8721 114° Southeast  Level Estimated
09:54PM 28.8454 -84.7316 114° Southeast  Level Estimated
09:55PM 28.7913 -84.5912 114° Southeast  Level Estimated
09:56PM 28.7371 -84.4510 114° Southeast  Level Estimated
09:57PM 28.6828 -84.3110 114° Southeast  Level Estimated
09:57PM 27.9139 -84.0942 114° Southeast 508 585 24,400  Level Miami Center
09:58PM 28.6278 -84.1698 114° Southeast  Level Estimated
09:58PM 27.9153 -83.9442 89° East 493 567 22,100  Level Miami Center
09:59PM 28.5727 -84.0288 114° Southeast  Level Estimated
09:59PM 27.9119 -83.7983 91° East 475 547 20,000  Level Miami Center
10:00PM 28.5174 -83.8880 114° Southeast  Level Estimated
10:01PM 28.4620 -83.7472 114° Southeast  Level Estimated
10:01PM 27.9125 -83.5214 90° East 446 513 15,700  Level Miami Center
10:02PM 28.4064 -83.6067 114° Southeast  Level Estimated
10:02PM 27.9144 -83.3878 89° East 435 501 13,500  Level Miami Center
10:03PM 27.9119 -83.2586 91° East 422 486 11,400 -1,740 Descending Miami Center
10:04PM 27.9236 -83.1369 84° East 403 464 10,000 -1,200 Descending Miami Center
10:05PM 27.9322 -83.0342 85° East 365 420 9,000 -1,260 Descending Miami Center
10:06PM 27.9217 -82.9397 97° East 326 375 7,500 -1,800 Descending Miami Center
10:07PM 27.9000 -82.8333 103° East 305 351 5,600 -1,740 Descending Tampa TRACON
10:08PM 27.8833 -82.7500 103° East 299 344 4,200 -1,260 Descending Tampa TRACON
10:09PM 27.8500 -82.6667 114° Southeast 280 322 3,300 -600 Descending Tampa TRACON
10:10PM 27.8167 -82.6000 119° Southeast 239 275 3,000 -360 Descending Tampa TRACON
10:11PM 27.8333 -82.5500 69° East 179 206 2,600 -540 Descending Tampa TRACON
10:12PM 27.8667 -82.5500 360° North 140 161 2,000 -780 Descending Tampa TRACON
10:13PM 27.9167 -82.5500 360° North 147 169 1,100 -900 Descending Tampa TRACON
10:14PM 27.9500 -82.5500 360° North 145 167 300 -840 Descending Tampa TRACON
10:16PM 27.9667 -82.5167 19° North  Level FlightAware Approximate
10:23PM 27.9755 -82.5332 19° North  Level Estimated